createdAt,value
2023-05-14T00:01:16.689Z,30.90
2023-05-14T00:06:38.803Z,48.90
2023-05-14T00:12:01.170Z,47.50
2023-05-14T00:17:23.360Z,51.80
2023-05-14T00:22:45.511Z,47.30
2023-05-14T00:28:07.498Z,36.80
2023-05-14T00:33:30.746Z,31.70
2023-05-14T00:38:52.321Z,29.50
2023-05-14T00:44:14.197Z,24.80
2023-05-14T00:49:36.449Z,26.80
2023-05-14T00:54:59.083Z,27.40
2023-05-14T01:00:21.415Z,24.20
2023-05-14T01:05:49.908Z,20.70
2023-05-14T01:11:19.794Z,20.40
2023-05-14T01:16:43.901Z,19.40
2023-05-14T01:22:06.373Z,17.90
2023-05-14T01:28:05.218Z,19.70
2023-05-14T01:33:29.536Z,17.80
2023-05-14T01:38:51.928Z,17.20
2023-05-14T01:44:14.391Z,21.60
2023-05-14T01:49:39.442Z,15.40
2023-05-14T01:55:01.260Z,18.20
2023-05-14T02:00:26.063Z,18.10
2023-05-14T02:05:48.215Z,17.70
2023-05-14T02:11:10.036Z,19.10
2023-05-14T02:16:31.769Z,17.70
2023-05-14T02:21:53.487Z,19.20
2023-05-14T02:27:15.568Z,21.70
2023-05-14T02:32:37.628Z,18.70
2023-05-14T02:38:00.855Z,21.90
2023-05-14T02:43:23.072Z,19.40
2023-05-14T02:48:44.643Z,18.80
2023-05-14T02:54:06.452Z,16.30
2023-05-14T02:59:28.331Z,17.70
2023-05-14T03:04:50.861Z,18.70
2023-05-14T03:10:12.371Z,17.60
2023-05-14T03:15:34.236Z,17.20
2023-05-14T03:20:58.328Z,16.60
2023-05-14T03:26:19.945Z,18.40
2023-05-14T03:31:41.499Z,18.00
2023-05-14T03:37:03.629Z,15.40
2023-05-14T03:42:25.643Z,17.50
2023-05-14T03:47:47.157Z,18.70
2023-05-14T03:53:09.188Z,20.70
2023-05-14T03:58:31.262Z,20.90
2023-05-14T04:03:55.380Z,24.30
2023-05-14T04:09:17.292Z,24.30
2023-05-14T04:14:38.954Z,22.70
2023-05-14T04:20:00.894Z,22.00
2023-05-14T04:25:22.528Z,21.50
2023-05-14T04:30:44.333Z,18.70
2023-05-14T04:36:06.475Z,19.50
2023-05-14T04:41:28.146Z,16.20
2023-05-14T04:46:49.973Z,14.30
2023-05-14T04:52:11.805Z,12.80
2023-05-14T04:57:36.805Z,15.50
2023-05-14T05:02:58.765Z,19.80
2023-05-14T05:08:20.829Z,12.60
2023-05-14T05:13:42.623Z,17.20
2023-05-14T05:19:04.800Z,12.20
2023-05-14T05:24:26.829Z,13.40
2023-05-14T05:29:49.286Z,9.90
2023-05-14T05:35:11.548Z,13.00
2023-05-14T05:40:33.451Z,12.60
2023-05-14T05:45:55.481Z,11.00
2023-05-14T05:51:17.573Z,11.90
2023-05-14T05:56:39.286Z,15.90
2023-05-14T06:02:00.848Z,8.70
2023-05-14T06:07:25.387Z,6.90
2023-05-14T06:12:47.354Z,5.00
2023-05-14T06:18:09.691Z,4.40
2023-05-14T06:23:32.270Z,6.10
2023-05-14T06:28:54.562Z,7.40
2023-05-14T06:34:17.506Z,4.30
2023-05-14T06:39:39.529Z,5.00
2023-05-14T06:45:01.360Z,5.30
2023-05-14T06:50:23.085Z,4.40
2023-05-14T06:55:47.731Z,6.00
2023-05-14T07:01:11.113Z,6.10
2023-05-14T07:06:33.466Z,5.90
2023-05-14T07:11:55.714Z,10.60
2023-05-14T07:17:17.787Z,5.70
2023-05-14T07:22:39.773Z,8.50
2023-05-14T07:28:01.745Z,5.40
2023-05-14T07:33:24.677Z,4.80
2023-05-14T07:38:46.306Z,5.70
2023-05-14T07:44:08.402Z,4.70
2023-05-14T07:49:30.249Z,7.00
2023-05-14T07:54:52.142Z,6.90
2023-05-14T08:00:14.498Z,9.20
2023-05-14T08:05:36.034Z,5.30
2023-05-14T08:10:57.680Z,5.50
2023-05-14T08:16:19.304Z,6.10
2023-05-14T08:21:41.552Z,8.10
2023-05-14T08:27:03.644Z,5.90
2023-05-14T08:32:25.862Z,6.00
2023-05-14T08:37:47.518Z,4.80
2023-05-14T08:43:10.422Z,9.10
2023-05-14T08:48:34.016Z,9.70
2023-05-14T08:53:59.324Z,7.80
2023-05-14T08:59:21.136Z,7.90
2023-05-14T09:04:42.851Z,7.60
2023-05-14T09:10:05.362Z,8.00
2023-05-14T09:15:28.941Z,5.30
2023-05-14T09:20:52.156Z,7.60
2023-05-14T09:26:17.700Z,7.70
2023-05-14T09:31:39.464Z,8.60
2023-05-14T09:37:05.095Z,6.60
2023-05-14T09:42:27.595Z,7.70
2023-05-14T09:47:49.605Z,7.40
2023-05-14T09:53:11.844Z,5.50
2023-05-14T09:58:34.931Z,6.40
2023-05-14T10:03:57.774Z,7.00
2023-05-14T10:09:26.459Z,6.60
2023-05-14T10:14:49.867Z,7.10
2023-05-14T10:20:15.969Z,6.10
2023-05-14T10:25:38.381Z,10.30
2023-05-14T10:31:01.120Z,6.00
2023-05-14T10:36:23.030Z,4.80
2023-05-14T10:41:45.178Z,6.10
2023-05-14T10:47:08.101Z,6.80
2023-05-14T10:52:30.043Z,23.10
2023-05-14T10:57:52.667Z,7.30
2023-05-14T11:03:14.838Z,6.90
2023-05-14T11:08:37.749Z,9.20
2023-05-14T11:14:01.975Z,18.00
2023-05-14T11:19:23.935Z,8.90
2023-05-14T11:24:45.482Z,5.60
2023-05-14T11:30:19.146Z,15.40
2023-05-14T11:35:43.139Z,6.20
2023-05-14T11:41:07.174Z,8.10
2023-05-14T11:46:30.978Z,6.60
2023-05-14T11:51:59.972Z,5.40
2023-05-14T11:57:22.911Z,6.20
2023-05-14T12:02:45.189Z,5.80
2023-05-14T12:08:28.430Z,6.10
2023-05-14T12:13:51.360Z,4.00
2023-05-14T12:19:19.141Z,6.00
2023-05-14T12:24:41.839Z,6.20
2023-05-14T12:30:20.587Z,7.20
2023-05-14T12:35:44.064Z,5.20
2023-05-14T12:41:06.194Z,4.40
2023-05-14T12:46:28.159Z,6.30
2023-05-14T12:51:52.676Z,6.20
2023-05-14T12:57:18.807Z,4.30
2023-05-14T13:02:42.618Z,4.30
2023-05-14T13:08:05.196Z,5.00
2023-05-14T13:13:27.146Z,5.60
2023-05-14T13:18:49.115Z,4.10
2023-05-14T13:24:10.765Z,4.30
2023-05-14T13:29:32.321Z,6.90
2023-05-14T13:34:54.406Z,3.80
2023-05-14T13:40:18.881Z,5.50
2023-05-14T13:45:41.235Z,3.60
2023-05-14T13:51:03.527Z,4.10
2023-05-14T13:56:25.103Z,5.20
2023-05-14T14:01:48.215Z,3.00
2023-05-14T14:07:10.224Z,3.80
2023-05-14T14:12:31.971Z,6.70
2023-05-14T14:17:54.090Z,9.60
2023-05-14T14:23:15.911Z,6.60
2023-05-14T14:28:38.046Z,2.50
2023-05-14T14:33:59.858Z,4.40
2023-05-14T14:39:21.780Z,2.80
2023-05-14T14:44:43.828Z,2.70
2023-05-14T14:50:06.929Z,5.10
2023-05-14T14:55:28.707Z,7.80
2023-05-14T15:00:53.929Z,7.00
2023-05-14T15:06:15.949Z,4.70
2023-05-14T15:11:37.804Z,3.80
2023-05-14T15:17:00.314Z,4.30
2023-05-14T15:22:25.442Z,6.30
2023-05-14T15:27:48.184Z,3.40
2023-05-14T15:33:10.713Z,6.40
2023-05-14T15:38:35.086Z,6.80
2023-05-14T15:43:58.667Z,5.90
2023-05-14T15:49:23.741Z,8.00
2023-05-14T15:54:47.022Z,5.60
2023-05-14T16:00:11.508Z,6.70
2023-05-14T16:05:33.230Z,3.20
2023-05-14T16:10:55.088Z,4.30
2023-05-14T16:16:17.424Z,7.00
2023-05-14T16:21:41.630Z,7.00
2023-05-14T16:27:03.866Z,4.00
2023-05-14T16:32:25.725Z,6.70
2023-05-14T16:37:47.626Z,4.60
2023-05-14T16:43:09.838Z,6.60
2023-05-14T16:48:32.065Z,5.60
2023-05-14T16:53:55.480Z,7.80
2023-05-14T16:59:18.490Z,8.50
2023-05-14T17:04:42.340Z,5.90
2023-05-14T17:10:05.461Z,5.00
2023-05-14T17:15:27.593Z,6.90
2023-05-14T17:20:51.464Z,5.50
2023-05-14T17:26:13.302Z,5.20
2023-05-14T17:31:35.226Z,6.60
2023-05-14T17:36:58.857Z,8.00
2023-05-14T17:42:23.290Z,7.60
2023-05-14T17:47:45.263Z,5.10
2023-05-14T17:53:07.162Z,7.10
2023-05-14T17:58:29.193Z,6.20
2023-05-14T18:03:51.382Z,11.10
2023-05-14T18:09:16.174Z,8.60
2023-05-14T18:14:38.314Z,7.40
2023-05-14T18:20:00.301Z,6.60
2023-05-14T18:25:25.174Z,8.10
2023-05-14T18:30:47.657Z,8.70
2023-05-14T18:36:09.139Z,10.50
2023-05-14T18:41:36.789Z,12.70
2023-05-14T18:46:59.742Z,10.80
2023-05-14T18:52:26.812Z,14.20
2023-05-14T18:57:52.006Z,12.40
2023-05-14T19:03:14.736Z,12.00
2023-05-14T19:08:36.472Z,13.50
2023-05-14T19:13:58.218Z,13.20
2023-05-14T19:19:21.768Z,21.20
2023-05-14T19:24:46.296Z,21.40
2023-05-14T19:30:09.003Z,27.70
2023-05-14T19:35:31.332Z,28.80
2023-05-14T19:40:56.999Z,19.70
2023-05-14T19:46:22.119Z,18.40
2023-05-14T19:51:44.241Z,16.90
2023-05-14T19:57:06.891Z,18.40
2023-05-14T20:02:29.543Z,24.00
2023-05-14T20:07:51.528Z,20.70
2023-05-14T20:13:13.264Z,20.00
2023-05-14T20:18:35.320Z,20.50
2023-05-14T20:23:58.533Z,21.90
2023-05-14T20:29:20.558Z,20.10
2023-05-14T20:34:42.486Z,21.10
2023-05-14T20:40:06.233Z,18.00
2023-05-14T20:45:32.193Z,24.30
2023-05-14T20:50:54.388Z,24.10
2023-05-14T20:56:16.019Z,21.00
2023-05-14T21:01:37.837Z,18.60
2023-05-14T21:07:00.640Z,18.40
2023-05-14T21:12:22.630Z,16.80
2023-05-14T21:17:44.798Z,18.60
2023-05-14T21:23:07.128Z,18.90
2023-05-14T21:28:32.213Z,18.70
2023-05-14T21:33:55.141Z,18.70
2023-05-14T21:39:17.544Z,21.50
2023-05-14T21:44:41.616Z,23.10
2023-05-14T21:50:05.098Z,26.40
2023-05-14T21:55:28.058Z,23.40
2023-05-14T22:00:52.693Z,16.00
2023-05-14T22:06:17.558Z,17.70
2023-05-14T22:11:39.375Z,12.20
2023-05-14T22:17:01.317Z,12.60
2023-05-14T22:22:25.013Z,9.30
2023-05-14T22:27:46.790Z,10.20
2023-05-14T22:33:09.503Z,8.90
2023-05-14T22:38:31.190Z,11.20
2023-05-14T22:43:53.272Z,13.20
2023-05-14T22:49:14.999Z,8.60
2023-05-14T22:54:36.982Z,10.80
2023-05-14T22:59:58.750Z,11.30
2023-05-14T23:05:23.346Z,10.20
2023-05-14T23:10:45.373Z,9.00
2023-05-14T23:16:07.453Z,7.90
2023-05-14T23:21:29.083Z,6.50
2023-05-14T23:26:50.767Z,7.40
2023-05-14T23:32:13.082Z,6.70
2023-05-14T23:37:36.974Z,8.20
2023-05-14T23:43:00.425Z,6.20
2023-05-14T23:48:22.145Z,5.60
2023-05-14T23:53:44.166Z,6.30
2023-05-14T23:59:06.106Z,9.00
